createdAt,value
2018-08-03T00:00:14.929Z,2.77
2018-08-03T00:02:43.655Z,3.00
2018-08-03T00:05:12.395Z,2.57
2018-08-03T00:07:41.101Z,3.23
2018-08-03T00:10:10.314Z,3.07
2018-08-03T00:12:39.126Z,3.40
2018-08-03T00:15:08.182Z,3.17
2018-08-03T00:17:36.908Z,3.63
2018-08-03T00:20:06.399Z,3.30
2018-08-03T00:22:35.417Z,3.17
2018-08-03T00:25:04.963Z,3.47
2018-08-03T00:27:33.688Z,3.37
2018-08-03T00:30:02.405Z,3.80
2018-08-03T00:32:31.174Z,3.60
2018-08-03T00:34:59.912Z,2.67
2018-08-03T00:37:28.655Z,3.30
2018-08-03T00:39:57.381Z,3.50
2018-08-03T00:42:26.141Z,3.33
2018-08-03T00:44:54.878Z,3.40
2018-08-03T00:47:23.677Z,3.90
2018-08-03T00:49:52.744Z,3.60
2018-08-03T00:52:21.497Z,3.70
2018-08-03T00:54:50.368Z,3.33
2018-08-03T00:57:19.077Z,2.53
2018-08-03T00:59:47.840Z,3.70
2018-08-03T01:02:16.601Z,3.57
2018-08-03T01:04:45.382Z,3.73
2018-08-03T01:07:14.117Z,3.47
2018-08-03T01:09:42.821Z,3.23
2018-08-03T01:12:11.592Z,3.67
2018-08-03T01:14:40.941Z,4.13
2018-08-03T01:17:09.715Z,3.97
2018-08-03T01:19:38.443Z,3.33
2018-08-03T01:22:07.187Z,3.90
2018-08-03T01:24:36.761Z,4.97
2018-08-03T01:27:05.674Z,7.20
2018-08-03T01:29:34.552Z,8.00
2018-08-03T01:32:03.306Z,6.57
2018-08-03T01:34:32.043Z,5.20
2018-08-03T01:37:00.772Z,4.47
2018-08-03T01:39:29.513Z,3.90
2018-08-03T01:41:58.322Z,4.20
2018-08-03T01:44:27.103Z,4.30
2018-08-03T01:46:55.842Z,4.23
2018-08-03T01:49:24.575Z,7.67
2018-08-03T01:51:53.312Z,5.87
2018-08-03T01:54:22.108Z,4.93
2018-08-03T01:56:50.884Z,4.40
2018-08-03T01:59:19.725Z,4.67
2018-08-03T02:01:48.488Z,4.30
2018-08-03T02:04:17.238Z,3.80
2018-08-03T02:06:45.965Z,3.97
2018-08-03T02:09:14.720Z,4.17
2018-08-03T02:11:43.482Z,4.50
2018-08-03T02:14:12.189Z,4.60
2018-08-03T02:16:41.694Z,4.50
2018-08-03T02:19:10.440Z,4.00
2018-08-03T02:21:39.175Z,5.33
2018-08-03T02:24:07.898Z,4.70
2018-08-03T02:26:36.645Z,4.80
2018-08-03T02:29:05.412Z,5.17
2018-08-03T02:31:42.914Z,4.40
2018-08-03T02:34:13.177Z,5.27
2018-08-03T02:36:41.897Z,5.10
2018-08-03T02:39:11.863Z,4.40
2018-08-03T02:41:40.667Z,4.80
2018-08-03T02:44:09.864Z,5.00
2018-08-03T02:46:38.739Z,5.30
2018-08-03T02:49:07.517Z,5.27
2018-08-03T02:51:36.268Z,5.00
2018-08-03T02:54:05.040Z,5.47
2018-08-03T02:56:33.822Z,5.63
2018-08-03T02:59:02.567Z,6.07
2018-08-03T03:01:31.582Z,4.97
2018-08-03T03:04:00.328Z,5.33
2018-08-03T03:06:29.120Z,5.20
2018-08-03T03:08:57.689Z,5.80
2018-08-03T03:11:26.376Z,6.03
2018-08-03T03:13:55.133Z,5.50
2018-08-03T03:16:23.964Z,5.33
2018-08-03T03:18:52.706Z,6.10
2018-08-03T03:21:21.226Z,6.77
2018-08-03T03:23:49.917Z,7.43
2018-08-03T03:26:18.772Z,8.23
2018-08-03T03:28:47.534Z,7.47
2018-08-03T03:31:16.293Z,7.80
2018-08-03T03:33:45.020Z,7.63
2018-08-03T03:36:13.807Z,5.80
2018-08-03T03:38:42.507Z,6.30
2018-08-03T03:41:11.286Z,6.33
2018-08-03T03:43:40.092Z,6.67
2018-08-03T03:46:09.076Z,6.30
2018-08-03T03:48:37.866Z,5.40
2018-08-03T03:51:06.777Z,6.20
2018-08-03T03:53:35.549Z,5.20
2018-08-03T03:56:04.488Z,5.80
2018-08-03T03:58:33.254Z,5.50
2018-08-03T04:01:08.614Z,6.53
2018-08-03T04:03:37.346Z,5.93
2018-08-03T04:06:06.498Z,6.77
2018-08-03T04:08:35.446Z,6.03
2018-08-03T04:11:04.339Z,5.90
2018-08-03T04:13:33.036Z,5.97
2018-08-03T04:16:08.683Z,6.00
2018-08-03T04:18:37.450Z,6.03
2018-08-03T04:21:06.719Z,5.90
2018-08-03T04:23:35.459Z,6.67
2018-08-03T04:26:04.851Z,5.60
2018-08-03T04:28:33.622Z,6.80
2018-08-03T04:31:05.296Z,6.33
2018-08-03T04:33:34.390Z,6.43
2018-08-03T04:36:07.194Z,6.30
2018-08-03T04:38:36.657Z,5.70
2018-08-03T04:41:05.980Z,6.93
2018-08-03T04:43:35.916Z,6.63
2018-08-03T04:46:04.672Z,6.07
2018-08-03T04:48:33.475Z,6.30
2018-08-03T04:51:02.228Z,6.07
2018-08-03T04:53:31.296Z,6.27
2018-08-03T04:56:00.304Z,5.90
2018-08-03T04:58:29.097Z,7.07
2018-08-03T05:00:57.906Z,6.10
2018-08-03T05:03:26.645Z,5.73
2018-08-03T05:05:56.268Z,6.90
2018-08-03T05:08:25.042Z,6.07
2018-08-03T05:10:53.805Z,6.60
2018-08-03T05:13:22.530Z,6.37
2018-08-03T05:15:51.334Z,7.90
2018-08-03T05:18:19.991Z,7.53
2018-08-03T05:20:48.647Z,6.17
2018-08-03T05:23:17.492Z,6.03
2018-08-03T05:25:46.194Z,5.93
2018-08-03T05:28:14.960Z,6.43
2018-08-03T05:30:43.778Z,6.73
2018-08-03T05:33:12.511Z,5.80
2018-08-03T05:35:41.303Z,5.97
2018-08-03T05:38:11.241Z,6.40
2018-08-03T05:40:39.959Z,6.53
2018-08-03T05:43:08.704Z,5.60
2018-08-03T05:45:38.026Z,6.07
2018-08-03T05:48:06.845Z,5.60
2018-08-03T05:50:35.568Z,4.93
2018-08-03T05:53:04.109Z,6.67
2018-08-03T05:55:32.823Z,4.93
2018-08-03T05:58:01.716Z,5.20
2018-08-03T06:00:30.538Z,4.60
2018-08-03T06:02:59.349Z,4.03
2018-08-03T06:05:28.239Z,4.50
2018-08-03T06:07:57.397Z,4.10
2018-08-03T06:10:27.033Z,3.97
2018-08-03T06:12:55.841Z,3.80
2018-08-03T06:15:24.553Z,3.97
2018-08-03T06:17:53.340Z,4.03
2018-08-03T06:20:22.158Z,4.10
2018-08-03T06:22:50.974Z,4.10
2018-08-03T06:25:19.757Z,4.50
2018-08-03T06:27:48.494Z,5.43
2018-08-03T06:30:17.237Z,3.90
2018-08-03T06:32:45.972Z,5.10
2018-08-03T06:35:14.808Z,5.07
2018-08-03T06:37:44.356Z,4.10
2018-08-03T06:40:13.169Z,4.50
2018-08-03T06:42:41.937Z,4.40
2018-08-03T06:45:10.722Z,4.00
2018-08-03T06:47:39.483Z,4.30
2018-08-03T06:50:09.214Z,4.00
2018-08-03T06:52:37.978Z,4.70
2018-08-03T06:55:06.898Z,4.93
2018-08-03T06:57:35.737Z,4.83
2018-08-03T07:00:05.623Z,4.10
2018-08-03T07:02:34.449Z,4.10
2018-08-03T07:05:03.283Z,4.17
2018-08-03T07:07:32.115Z,3.77
2018-08-03T07:10:00.889Z,4.13
2018-08-03T07:12:29.628Z,4.47
2018-08-03T07:14:58.551Z,3.73
2018-08-03T07:17:27.335Z,4.03
2018-08-03T07:19:56.213Z,3.30
2018-08-03T07:22:24.990Z,3.90
2018-08-03T07:24:53.689Z,3.40
2018-08-03T07:27:22.496Z,3.60
2018-08-03T07:29:51.314Z,3.60
2018-08-03T07:32:20.410Z,5.00
2018-08-03T07:34:50.178Z,4.23
2018-08-03T07:37:19.040Z,3.83
2018-08-03T07:39:49.141Z,3.70
2018-08-03T07:42:17.939Z,3.60
2018-08-03T07:44:50.809Z,3.50
2018-08-03T07:47:19.716Z,3.30
2018-08-03T07:49:48.505Z,3.77
2018-08-03T07:52:17.753Z,3.50
2018-08-03T07:54:46.488Z,3.80
2018-08-03T07:57:15.277Z,3.80
2018-08-03T07:59:44.023Z,3.50
2018-08-03T08:02:12.850Z,3.73
2018-08-03T08:04:41.386Z,3.60
2018-08-03T08:07:10.144Z,5.00
2018-08-03T08:09:38.966Z,3.30
2018-08-03T08:12:07.811Z,4.07
2018-08-03T08:14:36.637Z,3.90
2018-08-03T08:17:05.552Z,3.20
2018-08-03T08:19:34.257Z,3.57
2018-08-03T08:22:03.112Z,3.03
2018-08-03T08:24:31.883Z,3.67
2018-08-03T08:27:00.640Z,4.07
2018-08-03T08:29:29.536Z,3.23
2018-08-03T08:31:58.518Z,2.97
2018-08-03T08:34:27.381Z,3.90
2018-08-03T08:36:56.451Z,3.50
2018-08-03T08:39:25.698Z,4.07
2018-08-03T08:41:54.500Z,3.93
2018-08-03T08:44:23.386Z,3.10
2018-08-03T08:46:52.201Z,3.07
2018-08-03T08:49:21.422Z,3.27
2018-08-03T08:51:50.733Z,3.50
2018-08-03T08:54:19.542Z,3.10
2018-08-03T08:56:48.295Z,2.93
2018-08-03T08:59:17.094Z,3.47
2018-08-03T09:01:45.865Z,2.80
2018-08-03T09:04:14.704Z,2.90
2018-08-03T09:06:43.547Z,2.90
2018-08-03T09:09:12.417Z,3.40
2018-08-03T09:11:41.142Z,3.77
2018-08-03T09:14:09.948Z,3.20
2018-08-03T09:16:38.729Z,3.40
2018-08-03T09:19:07.570Z,3.40
2018-08-03T09:21:36.569Z,4.53
2018-08-03T09:24:05.373Z,3.70
2018-08-03T09:26:34.011Z,3.93
2018-08-03T09:29:03.256Z,3.70
2018-08-03T09:31:32.010Z,3.00
2018-08-03T09:34:00.750Z,3.00
2018-08-03T09:36:29.705Z,3.40
2018-08-03T09:38:58.398Z,3.13
2018-08-03T09:41:27.233Z,2.83
2018-08-03T09:43:56.061Z,4.10
2018-08-03T09:46:28.400Z,3.20
2018-08-03T09:48:57.238Z,2.80
2018-08-03T09:51:25.997Z,3.47
2018-08-03T09:53:54.820Z,3.17
2018-08-03T09:56:23.686Z,3.03
2018-08-03T09:58:52.623Z,2.70
2018-08-03T10:01:21.371Z,2.87
2018-08-03T10:03:50.240Z,3.20
2018-08-03T10:06:19.005Z,3.00
2018-08-03T10:08:47.722Z,2.87
2018-08-03T10:11:16.483Z,3.20
2018-08-03T10:13:45.194Z,2.70
2018-08-03T10:16:13.703Z,2.90
2018-08-03T10:18:42.356Z,3.00
2018-08-03T10:21:11.072Z,3.40
2018-08-03T10:23:40.085Z,3.10
2018-08-03T10:26:08.869Z,3.17
2018-08-03T10:28:37.632Z,2.90
2018-08-03T10:31:06.375Z,3.10
2018-08-03T10:33:35.116Z,2.90
2018-08-03T10:36:03.878Z,3.90
2018-08-03T10:38:32.598Z,3.70
2018-08-03T10:41:01.386Z,3.10
2018-08-03T10:43:30.161Z,3.50
2018-08-03T10:45:59.009Z,3.50
2018-08-03T10:48:27.838Z,3.10
2018-08-03T10:50:56.670Z,4.00
2018-08-03T10:53:25.220Z,4.17
2018-08-03T10:55:53.900Z,4.10
2018-08-03T10:58:22.668Z,3.13
2018-08-03T11:00:52.085Z,3.00
2018-08-03T11:03:20.884Z,3.40
2018-08-03T11:05:50.487Z,3.90
2018-08-03T11:08:28.991Z,3.40
2018-08-03T11:10:57.774Z,3.37
2018-08-03T11:13:26.674Z,3.53
2018-08-03T11:15:55.445Z,3.10
2018-08-03T11:18:24.261Z,3.23
2018-08-03T11:20:52.995Z,3.70
2018-08-03T11:23:21.817Z,2.97
2018-08-03T11:25:50.611Z,3.33
2018-08-03T11:28:19.489Z,3.93
2018-08-03T11:30:48.295Z,3.50
2018-08-03T11:33:17.047Z,3.70
2018-08-03T11:35:45.775Z,3.10
2018-08-03T11:38:14.507Z,3.30
2018-08-03T11:40:43.281Z,3.13
2018-08-03T11:43:12.037Z,3.03
2018-08-03T11:45:40.854Z,3.60
2018-08-03T11:48:09.590Z,3.83
2018-08-03T11:50:38.400Z,4.30
2018-08-03T11:53:07.367Z,3.10
2018-08-03T11:55:36.130Z,3.20
2018-08-03T11:58:04.883Z,3.77
2018-08-03T12:00:33.629Z,2.90
2018-08-03T12:03:02.603Z,3.20
2018-08-03T12:05:31.463Z,3.10
2018-08-03T12:08:00.357Z,3.23
2018-08-03T12:10:29.098Z,3.40
2018-08-03T12:12:57.865Z,2.70
2018-08-03T12:15:26.661Z,2.77
2018-08-03T12:17:55.439Z,3.30
2018-08-03T12:20:24.170Z,2.60
2018-08-03T12:22:52.943Z,3.03
2018-08-03T12:25:21.737Z,2.93
2018-08-03T12:27:50.575Z,3.80
2018-08-03T12:30:19.335Z,3.10
2018-08-03T12:32:48.089Z,3.43
2018-08-03T12:35:16.842Z,3.33
2018-08-03T12:37:45.634Z,3.30
2018-08-03T12:40:14.401Z,3.00
2018-08-03T12:42:43.209Z,2.90
2018-08-03T12:45:12.015Z,2.90
2018-08-03T12:47:40.832Z,2.90
2018-08-03T12:50:09.575Z,4.33
2018-08-03T12:52:38.936Z,3.03
2018-08-03T12:55:07.617Z,3.40
2018-08-03T12:57:36.127Z,3.03
2018-08-03T13:00:05.886Z,2.60
2018-08-03T13:02:34.680Z,3.00
2018-08-03T13:05:03.409Z,3.20
2018-08-03T13:07:32.146Z,2.73
2018-08-03T13:10:00.924Z,2.83
2018-08-03T13:12:29.666Z,3.07
2018-08-03T13:14:58.299Z,3.00
2018-08-03T13:17:26.978Z,2.50
2018-08-03T13:19:55.793Z,2.70
2018-08-03T13:22:24.677Z,3.10
2018-08-03T13:24:53.538Z,2.80
2018-08-03T13:27:22.328Z,2.60
2018-08-03T13:29:51.069Z,3.10
2018-08-03T13:32:19.624Z,2.70
2018-08-03T13:34:48.286Z,2.77
2018-08-03T13:37:17.021Z,3.10
2018-08-03T13:39:45.764Z,2.80
2018-08-03T13:42:14.314Z,3.23
2018-08-03T13:44:43.077Z,3.50
2018-08-03T13:47:11.791Z,3.17
2018-08-03T13:49:40.568Z,2.80
2018-08-03T13:52:09.280Z,3.33
2018-08-03T13:54:38.067Z,3.70
2018-08-03T13:57:06.844Z,2.83
2018-08-03T13:59:35.599Z,3.40
2018-08-03T14:02:15.918Z,3.47
2018-08-03T14:04:44.808Z,2.83
2018-08-03T14:07:13.666Z,3.30
2018-08-03T14:09:42.446Z,2.50
2018-08-03T14:12:11.166Z,2.77
2018-08-03T14:14:41.035Z,3.10
2018-08-03T14:17:10.273Z,3.30
2018-08-03T14:19:39.207Z,2.70
2018-08-03T14:22:07.969Z,3.03
2018-08-03T14:24:36.775Z,3.10
2018-08-03T14:27:06.139Z,3.20
2018-08-03T14:29:34.948Z,2.87
2018-08-03T14:32:04.780Z,2.90
2018-08-03T14:34:33.641Z,3.17
2018-08-03T14:37:06.825Z,3.23
2018-08-03T14:39:35.529Z,3.20
2018-08-03T14:42:04.589Z,3.33
2018-08-03T14:44:33.406Z,3.17
2018-08-03T14:47:02.193Z,3.27
2018-08-03T14:49:30.943Z,3.40
2018-08-03T14:52:00.186Z,3.47
2018-08-03T14:54:32.403Z,3.20
2018-08-03T14:57:01.149Z,3.60
2018-08-03T14:59:29.936Z,3.60
2018-08-03T15:01:58.763Z,3.17
2018-08-03T15:04:27.604Z,3.47
2018-08-03T15:06:56.402Z,3.00
2018-08-03T15:09:25.169Z,3.00
2018-08-03T15:11:53.932Z,3.30
2018-08-03T15:14:22.702Z,4.60
2018-08-03T15:16:52.165Z,4.70
2018-08-03T15:19:20.956Z,5.17
2018-08-03T15:21:50.741Z,5.30
2018-08-03T15:24:19.513Z,5.10
2018-08-03T15:26:48.256Z,5.30
2018-08-03T15:29:16.991Z,4.50
2018-08-03T15:31:45.728Z,5.40
2018-08-03T15:34:14.457Z,4.50
2018-08-03T15:36:43.264Z,4.83
2018-08-03T15:39:11.959Z,5.17
2018-08-03T15:41:40.701Z,5.83
2018-08-03T15:44:09.443Z,5.70
2018-08-03T15:46:38.181Z,4.83
2018-08-03T15:49:06.927Z,4.80
2018-08-03T15:51:35.708Z,5.30
2018-08-03T15:54:04.461Z,4.80
2018-08-03T15:56:34.076Z,5.07
2018-08-03T15:59:02.845Z,4.90
2018-08-03T16:01:31.572Z,5.30
2018-08-03T16:04:00.426Z,5.00
2018-08-03T16:06:29.218Z,4.90
2018-08-03T16:08:58.008Z,4.10
2018-08-03T16:11:26.800Z,4.70
2018-08-03T16:13:55.646Z,4.73
2018-08-03T16:16:24.584Z,4.70
2018-08-03T16:18:53.486Z,4.97
2018-08-03T16:21:22.486Z,4.37
2018-08-03T16:23:51.513Z,4.77
2018-08-03T16:26:20.354Z,4.53
2018-08-03T16:28:49.965Z,4.73
2018-08-03T16:31:18.876Z,4.43
2018-08-03T16:33:47.628Z,4.20
2018-08-03T16:36:17.369Z,4.67
2018-08-03T16:38:46.479Z,4.70
2018-08-03T16:41:15.394Z,4.00
2018-08-03T16:43:45.258Z,4.20
2018-08-03T16:46:14.045Z,3.90
2018-08-03T16:48:42.851Z,4.50
2018-08-03T16:51:11.704Z,4.20
2018-08-03T16:53:40.459Z,4.40
2018-08-03T16:56:09.235Z,4.60
2018-08-03T16:58:38.169Z,3.90
2018-08-03T17:01:06.823Z,4.20
2018-08-03T17:03:35.753Z,3.97
2018-08-03T17:06:04.723Z,4.30
2018-08-03T17:08:33.595Z,4.13
2018-08-03T17:11:02.346Z,3.97
2018-08-03T17:13:31.171Z,3.90
2018-08-03T17:15:59.991Z,3.17
2018-08-03T17:18:28.846Z,3.30
2018-08-03T17:20:57.638Z,3.60
2018-08-03T17:23:26.513Z,3.07
2018-08-03T17:25:55.394Z,3.47
2018-08-03T17:28:24.242Z,3.33
2018-08-03T17:30:53.180Z,3.20
2018-08-03T17:33:22.106Z,3.70
2018-08-03T17:35:50.679Z,3.33
2018-08-03T17:38:19.399Z,3.03
2018-08-03T17:40:48.268Z,3.97
2018-08-03T17:43:17.026Z,3.43
2018-08-03T17:45:46.093Z,3.43
2018-08-03T17:48:14.828Z,3.63
2018-08-03T17:50:43.723Z,3.53
2018-08-03T17:53:12.645Z,3.67
2018-08-03T17:55:43.065Z,3.57
2018-08-03T17:58:12.939Z,3.30
2018-08-03T18:00:41.694Z,3.87
2018-08-03T18:03:10.421Z,3.30
2018-08-03T18:05:40.331Z,2.50
2018-08-03T18:08:09.101Z,8.60
2018-08-03T18:10:37.925Z,4.13
2018-08-03T18:13:06.738Z,3.03
2018-08-03T18:15:35.578Z,2.73
2018-08-03T18:18:05.087Z,2.97
2018-08-03T18:20:33.878Z,3.40
2018-08-03T18:23:02.873Z,2.60
2018-08-03T18:25:31.677Z,3.03
2018-08-03T18:28:00.449Z,2.90
2018-08-03T18:30:28.953Z,3.33
2018-08-03T18:32:57.612Z,2.50
2018-08-03T18:35:26.552Z,2.40
2018-08-03T18:37:55.489Z,2.40
2018-08-03T18:40:24.485Z,2.30
2018-08-03T18:42:53.246Z,2.30
2018-08-03T18:45:22.034Z,2.93
2018-08-03T18:47:50.910Z,2.43
2018-08-03T18:50:20.153Z,2.70
2018-08-03T18:52:52.968Z,2.67
2018-08-03T18:55:21.772Z,2.90
2018-08-03T18:57:50.753Z,2.50
2018-08-03T19:00:20.880Z,2.37
2018-08-03T19:02:49.650Z,2.40
2018-08-03T19:05:18.500Z,3.73
2018-08-03T19:07:47.931Z,2.70
2018-08-03T19:10:16.765Z,3.33
2018-08-03T19:12:45.613Z,2.93
2018-08-03T19:15:14.549Z,3.20
2018-08-03T19:17:43.403Z,2.80
2018-08-03T19:20:12.934Z,3.30
2018-08-03T19:22:41.804Z,3.60
2018-08-03T19:25:10.687Z,4.47
2018-08-03T19:27:39.637Z,3.97
2018-08-03T19:30:08.535Z,3.30
2018-08-03T19:32:37.302Z,3.00
2018-08-03T19:35:06.104Z,2.77
2018-08-03T19:37:34.910Z,2.50
2018-08-03T19:40:03.826Z,2.07
2018-08-03T19:42:32.588Z,3.03
2018-08-03T19:45:01.366Z,2.40
2018-08-03T19:47:30.112Z,2.43
2018-08-03T19:49:58.954Z,2.13
2018-08-03T19:52:27.853Z,1.80
2018-08-03T19:54:57.613Z,1.60
2018-08-03T19:57:26.502Z,1.87
2018-08-03T19:59:56.248Z,1.97
2018-08-03T20:02:25.107Z,2.40
2018-08-03T20:04:53.971Z,2.03
2018-08-03T20:07:22.848Z,1.87
2018-08-03T20:09:51.621Z,1.60
2018-08-03T20:12:20.631Z,1.73
2018-08-03T20:14:49.463Z,1.70
2018-08-03T20:17:18.189Z,1.77
2018-08-03T20:19:47.954Z,1.87
2018-08-03T20:22:18.154Z,2.20
2018-08-03T20:24:47.298Z,1.90
2018-08-03T20:27:16.674Z,1.77
2018-08-03T20:29:45.656Z,1.60
2018-08-03T20:32:14.573Z,1.70
2018-08-03T20:34:43.493Z,2.00
2018-08-03T20:37:13.558Z,1.70
2018-08-03T20:39:45.181Z,1.80
2018-08-03T20:42:15.624Z,1.63
2018-08-03T20:44:45.585Z,1.50
2018-08-03T20:47:16.864Z,1.63
2018-08-03T20:49:45.617Z,1.80
2018-08-03T20:52:14.449Z,1.60
2018-08-03T20:54:43.207Z,1.87
2018-08-03T20:57:12.009Z,1.70
2018-08-03T20:59:40.855Z,1.83
2018-08-03T21:02:09.897Z,1.70
2018-08-03T21:04:38.721Z,1.50
2018-08-03T21:07:07.467Z,1.40
2018-08-03T21:09:36.202Z,1.80
2018-08-03T21:12:05.164Z,1.73
2018-08-03T21:14:34.008Z,1.47
2018-08-03T21:17:02.796Z,1.80
2018-08-03T21:19:32.020Z,1.80
2018-08-03T21:22:00.762Z,1.60
2018-08-03T21:24:29.488Z,1.60
2018-08-03T21:26:58.276Z,2.10
2018-08-03T21:29:27.132Z,1.80
2018-08-03T21:31:55.885Z,1.70
2018-08-03T21:34:24.696Z,1.33
2018-08-03T21:36:53.400Z,1.70
2018-08-03T21:39:22.160Z,1.77
2018-08-03T21:41:50.926Z,1.70
2018-08-03T21:44:19.624Z,1.60
2018-08-03T21:46:48.341Z,1.40
2018-08-03T21:49:17.141Z,1.50
2018-08-03T21:51:45.873Z,1.30
2018-08-03T21:54:14.611Z,1.43
2018-08-03T21:56:43.571Z,1.40
2018-08-03T21:59:12.316Z,1.40
2018-08-03T22:01:41.088Z,1.50
2018-08-03T22:04:13.388Z,1.70
2018-08-03T22:06:42.136Z,1.60
2018-08-03T22:09:10.983Z,1.60
2018-08-03T22:11:39.855Z,1.60
2018-08-03T22:14:08.774Z,1.30
2018-08-03T22:19:19.932Z,1.47
2018-08-03T22:21:48.749Z,1.47
2018-08-03T22:24:17.625Z,1.10
2018-08-03T22:26:46.333Z,1.40
2018-08-03T22:29:15.152Z,1.13
2018-08-03T22:31:44.510Z,1.33
2018-08-03T22:34:13.241Z,1.67
2018-08-03T22:36:43.456Z,1.70
2018-08-03T22:39:12.242Z,1.53
2018-08-03T22:41:41.030Z,1.27
2018-08-03T22:44:09.820Z,1.47
2018-08-03T22:46:38.647Z,1.30
2018-08-03T22:49:07.446Z,1.60
2018-08-03T22:51:44.594Z,1.47
2018-08-03T22:54:13.744Z,2.00
2018-08-03T22:56:44.341Z,1.60
2018-08-03T22:59:13.100Z,1.73
2018-08-03T23:01:41.881Z,1.87
2018-08-03T23:04:10.951Z,1.70
2018-08-03T23:06:39.628Z,1.87
2018-08-03T23:09:09.068Z,1.77
2018-08-03T23:11:37.861Z,1.50
2018-08-03T23:14:06.658Z,1.70
2018-08-03T23:16:35.438Z,1.60
2018-08-03T23:19:04.217Z,1.40
2018-08-03T23:21:32.940Z,1.70
2018-08-03T23:24:01.653Z,1.50
2018-08-03T23:26:30.542Z,1.33
2018-08-03T23:28:59.270Z,1.67
2018-08-03T23:31:28.011Z,1.50
2018-08-03T23:33:56.883Z,1.60
2018-08-03T23:36:25.677Z,1.50
2018-08-03T23:38:54.488Z,1.33
2018-08-03T23:41:23.295Z,1.30
2018-08-03T23:43:52.032Z,1.50
2018-08-03T23:46:20.841Z,1.63
2018-08-03T23:48:49.637Z,1.53
2018-08-03T23:51:18.388Z,1.77
2018-08-03T23:53:47.114Z,1.50
2018-08-03T23:56:15.872Z,1.63
2018-08-03T23:58:44.711Z,1.27
